Time;durP1;ratioP1;P1;durP2;ratioP2;P2;SDS_P1;SDS_P2;PMS_P1;PMS_P2;Temp;Humidity;BMP_temperature;BMP_pressure;BME280_temperature;BME280_humidity;BME280_pressure;Samples;Min_cycle;Max_cycle;Signal;HPM_P1;HPM_P2
2022/04/24 00:01:04;;;;;;;3.88;3.58;;;12.20;99.90;;;;;;5072351;28;20195;-71
2022/04/24 00:03:32;;;;;;;3.80;3.50;;;12.30;99.90;;;;;;5071850;28;20289;-72
2022/04/24 00:06:00;;;;;;;4.15;3.72;;;12.20;99.90;;;;;;5072753;28;20229;-72
2022/04/24 00:08:28;;;;;;;2.95;2.72;;;12.30;99.90;;;;;;5071786;28;20252;-69
2022/04/24 00:10:57;;;;;;;4.70;3.78;;;12.30;99.90;;;;;;5072185;28;20203;-69
2022/04/24 00:13:25;;;;;;;3.10;2.90;;;12.30;99.90;;;;;;5071284;28;20746;-70
2022/04/24 00:15:53;;;;;;;3.85;3.50;;;12.30;99.90;;;;;;5072113;28;20247;-69
2022/04/24 00:18:21;;;;;;;7.25;3.50;;;12.30;99.90;;;;;;5072219;28;20207;-69
2022/04/24 00:20:49;;;;;;;3.47;2.88;;;12.20;99.90;;;;;;5071816;28;20196;-70
2022/04/24 00:23:17;;;;;;;3.30;3.10;;;12.30;99.90;;;;;;5071196;28;20276;-71
2022/04/24 00:25:45;;;;;;;3.90;3.40;;;12.20;99.90;;;;;;5071867;28;20286;-69
2022/04/24 00:28:14;;;;;;;3.75;3.45;;;12.20;99.90;;;;;;5072050;28;20211;-70
2022/04/24 00:30:42;;;;;;;3.75;3.45;;;12.20;99.90;;;;;;5071771;28;20238;-69
2022/04/24 00:33:10;;;;;;;3.30;3.10;;;12.20;99.90;;;;;;5071084;28;20253;-69
2022/04/24 00:35:38;;;;;;;3.40;3.17;;;12.20;99.90;;;;;;5071687;28;20568;-70
2022/04/24 00:38:06;;;;;;;5.13;3.47;;;12.20;99.90;;;;;;5071523;28;20309;-69
2022/04/24 00:40:34;;;;;;;3.38;3.08;;;12.20;99.90;;;;;;5071552;28;20296;-69
2022/04/24 00:43:02;;;;;;;3.90;3.45;;;12.20;99.90;;;;;;5070611;28;20270;-69
2022/04/24 00:45:31;;;;;;;3.40;2.92;;;12.20;99.90;;;;;;5068706;28;20207;-70
2022/04/24 00:47:59;;;;;;;3.25;3.05;;;12.20;99.90;;;;;;5071417;28;20233;-69
2022/04/24 00:50:27;;;;;;;3.05;2.85;;;12.20;99.90;;;;;;5071437;28;20199;-69
2022/04/24 00:52:55;;;;;;;3.20;2.90;;;12.10;99.90;;;;;;5070817;28;20219;-70
2022/04/24 00:55:24;;;;;;;3.00;2.80;;;12.20;99.90;;;;;;5071043;28;20260;-69
2022/04/24 00:57:52;;;;;;;5.30;3.30;;;12.20;99.90;;;;;;5070830;28;20230;-67
2022/04/24 01:00:20;;;;;;;3.53;3.10;;;12.20;99.90;;;;;;5070722;28;20195;-70
2022/04/24 01:02:49;;;;;;;3.05;2.85;;;12.20;99.90;;;;;;5070773;28;20254;-69
2022/04/24 01:05:18;;;;;;;3.30;3.10;;;12.30;99.90;;;;;;5071306;28;20204;-69
2022/04/24 01:07:46;;;;;;;4.75;3.45;;;12.30;99.90;;;;;;5071344;28;20230;-70
2022/04/24 01:10:14;;;;;;;3.63;3.33;;;12.30;99.90;;;;;;5071141;28;20203;-70
2022/04/24 01:12:42;;;;;;;3.88;3.58;;;12.30;99.90;;;;;;5070339;28;20219;-71
2022/04/24 01:15:10;;;;;;;4.57;3.92;;;12.30;99.90;;;;;;5071023;28;20196;-69
2022/04/24 01:17:38;;;;;;;3.72;3.42;;;12.30;99.90;;;;;;5070408;28;20213;-70
2022/04/24 01:20:09;;;;;;;3.25;3.05;;;12.30;99.90;;;;;;5071080;28;20585;-69
2022/04/24 01:22:39;;;;;;;3.60;3.40;;;12.30;99.90;;;;;;5070395;28;20707;-70
2022/04/24 01:25:07;;;;;;;2.90;2.80;;;12.30;99.90;;;;;;5070771;28;20264;-69
2022/04/24 01:27:35;;;;;;;3.70;3.40;;;12.30;99.90;;;;;;5070966;28;20214;-70
2022/04/24 01:30:04;;;;;;;3.63;3.35;;;12.30;99.90;;;;;;5070664;28;20241;-70
2022/04/24 01:32:33;;;;;;;3.28;2.97;;;12.30;99.90;;;;;;5069681;28;20247;-70
2022/04/24 01:35:01;;;;;;;2.90;2.70;;;12.30;99.90;;;;;;5070804;28;20707;-70
2022/04/24 01:37:29;;;;;;;3.40;3.20;;;12.30;99.90;;;;;;5070631;28;20246;-70
2022/04/24 01:39:58;;;;;;;4.43;3.55;;;12.30;99.90;;;;;;5070680;28;20691;-69
2022/04/24 01:42:26;;;;;;;3.15;2.95;;;12.30;99.90;;;;;;5069776;28;20277;-70
2022/04/24 01:44:54;;;;;;;3.38;3.08;;;12.20;99.90;;;;;;5070459;28;20203;-70
2022/04/24 01:47:22;;;;;;;3.53;2.95;;;12.30;99.90;;;;;;5070347;28;20245;-69
2022/04/24 01:49:50;;;;;;;3.55;3.25;;;12.30;99.90;;;;;;5070751;28;20242;-70
2022/04/24 01:52:18;;;;;;;4.05;3.75;;;12.30;99.90;;;;;;5069794;28;20285;-70
2022/04/24 01:54:46;;;;;;;4.00;3.70;;;12.30;99.90;;;;;;5070799;28;20620;-70
2022/04/24 01:57:15;;;;;;;3.88;3.50;;;12.30;99.90;;;;;;5070215;28;20258;-72
2022/04/24 01:59:42;;;;;;;3.67;3.38;;;12.20;99.90;;;;;;5070525;28;20203;-70
2022/04/24 02:02:10;;;;;;;4.70;3.63;;;12.30;99.90;;;;;;5069826;28;20257;-70
2022/04/24 02:04:39;;;;;;;4.05;3.65;;;12.30;99.90;;;;;;5070681;28;20191;-70
2022/04/24 02:07:07;;;;;;;3.83;3.58;;;12.30;99.90;;;;;;5072913;28;20205;-69
2022/04/24 02:09:36;;;;;;;3.80;3.40;;;12.30;99.90;;;;;;5074053;28;20196;-70
2022/04/24 02:12:05;;;;;;;3.42;3.15;;;12.30;99.90;;;;;;5073937;28;20222;-70
2022/04/24 02:14:34;;;;;;;4.25;3.85;;;12.30;99.90;;;;;;5074431;28;20199;-73
2022/04/24 02:17:02;;;;;;;3.83;3.53;;;12.30;99.90;;;;;;5074302;28;20276;-70
2022/04/24 02:19:30;;;;;;;3.80;3.33;;;12.20;99.90;;;;;;5074506;28;20229;-70
2022/04/24 02:21:58;;;;;;;3.72;3.42;;;12.20;99.90;;;;;;5074141;28;20284;-70
2022/04/24 02:24:26;;;;;;;3.63;3.42;;;12.20;99.90;;;;;;5074170;28;20713;-70
2022/04/24 02:26:53;;;;;;;3.53;3.22;;;12.20;99.90;;;;;;5074346;28;20287;-70
2022/04/24 02:29:21;;;;;;;3.67;3.38;;;12.30;99.90;;;;;;5074004;28;20234;-69
2022/04/24 02:31:50;;;;;;;4.85;4.03;;;12.20;99.90;;;;;;5073882;28;20243;-71
2022/04/24 02:34:18;;;;;;;3.53;3.22;;;12.20;99.90;;;;;;5073382;28;20227;-70
2022/04/24 02:36:46;;;;;;;4.00;3.70;;;12.20;99.90;;;;;;5073839;28;20637;-71
2022/04/24 02:39:14;;;;;;;3.95;3.55;;;12.20;99.90;;;;;;5074089;28;20297;-68
2022/04/24 02:41:42;;;;;;;3.60;3.38;;;12.20;99.90;;;;;;5073464;28;20326;-69
2022/04/24 02:44:09;;;;;;;4.10;3.80;;;12.20;99.90;;;;;;5072954;28;20227;-70
2022/04/24 02:46:38;;;;;;;4.05;3.75;;;12.20;99.90;;;;;;5073318;28;20199;-70
2022/04/24 02:49:07;;;;;;;3.78;3.47;;;12.20;99.90;;;;;;5073420;28;20288;-70
2022/04/24 02:51:35;;;;;;;3.95;3.65;;;12.20;99.90;;;;;;5067289;28;20272;-69
2022/04/24 02:54:03;;;;;;;3.90;3.50;;;12.20;99.90;;;;;;5066712;28;20207;-70
2022/04/24 02:56:30;;;;;;;4.13;3.83;;;12.20;99.90;;;;;;5067069;28;20238;-70
2022/04/24 02:58:58;;;;;;;5.50;3.42;;;12.20;99.90;;;;;;5066648;28;20252;-69
2022/04/24 03:01:26;;;;;;;3.40;3.20;;;12.30;99.90;;;;;;5073601;28;20259;-69
2022/04/24 03:03:54;;;;;;;3.83;3.53;;;12.30;99.90;;;;;;5066314;28;20284;-70
2022/04/24 03:06:24;;;;;;;3.25;2.95;;;12.30;99.90;;;;;;5067024;28;20231;-71
2022/04/24 03:08:51;;;;;;;4.70;4.30;;;12.30;99.90;;;;;;5069369;28;20223;-70
2022/04/24 03:11:19;;;;;;;5.38;3.95;;;12.20;99.90;;;;;;5066945;28;20273;-69
2022/04/24 03:13:47;;;;;;;4.65;4.32;;;12.30;99.90;;;;;;5072653;28;20253;-69
2022/04/24 03:16:15;;;;;;;4.07;3.67;;;12.30;99.90;;;;;;5067174;28;20227;-70
2022/04/24 03:18:43;;;;;;;4.25;3.85;;;12.30;99.90;;;;;;5070362;28;20260;-70
2022/04/24 03:21:11;;;;;;;4.00;3.70;;;12.30;99.90;;;;;;5066757;28;20758;-69
2022/04/24 03:23:40;;;;;;;3.40;3.20;;;12.30;99.90;;;;;;5068812;28;20211;-70
2022/04/24 03:26:13;;;;;;;4.30;4.00;;;12.30;99.90;;;;;;5072872;28;20207;-71
2022/04/24 03:28:42;;;;;;;3.83;3.60;;;12.20;99.90;;;;;;5073106;28;20737;-71
2022/04/24 03:31:12;;;;;;;4.07;3.78;;;12.50;99.90;;;;;;5072902;28;20232;-70
2022/04/24 03:33:40;;;;;;;4.28;3.88;;;12.20;99.90;;;;;;5072193;28;20233;-69
2022/04/24 03:36:08;;;;;;;3.95;3.65;;;12.30;99.90;;;;;;5073206;28;20241;-70
2022/04/24 03:38:35;;;;;;;4.43;4.03;;;12.30;99.90;;;;;;5072085;28;20212;-70
2022/04/24 03:41:05;;;;;;;4.80;4.40;;;12.20;99.90;;;;;;5072664;28;20195;-70
2022/04/24 03:43:32;;;;;;;4.18;3.88;;;12.20;99.90;;;;;;5072172;28;20207;-69
2022/04/24 03:46:00;;;;;;;4.00;3.70;;;12.20;99.90;;;;;;5072354;28;20312;-69
2022/04/24 03:48:28;;;;;;;4.05;3.75;;;12.10;99.90;;;;;;5072807;28;20199;-70
2022/04/24 03:50:56;;;;;;;4.35;3.95;;;12.20;99.90;;;;;;5072428;28;20203;-70
2022/04/24 03:53:24;;;;;;;4.90;4.50;;;12.10;99.90;;;;;;5071539;28;20230;-70
2022/04/24 03:55:52;;;;;;;4.35;4.05;;;12.10;99.90;;;;;;5072214;28;20702;-70
2022/04/24 03:58:21;;;;;;;5.35;3.97;;;12.10;99.90;;;;;;5072467;28;20314;-70
2022/04/24 04:00:49;;;;;;;3.88;3.58;;;12.10;99.90;;;;;;5072132;28;20223;-70
2022/04/24 04:03:17;;;;;;;4.70;4.20;;;12.10;99.90;;;;;;5071753;28;20203;-69
2022/04/24 04:05:45;;;;;;;4.20;3.80;;;12.10;99.90;;;;;;5072247;28;20199;-70
2022/04/24 04:08:14;;;;;;;4.97;4.57;;;12.10;99.90;;;;;;5072245;28;20227;-69
2022/04/24 04:10:42;;;;;;;4.38;3.97;;;12.10;99.90;;;;;;5072233;28;20550;-70
2022/04/24 04:13:09;;;;;;;4.82;4.32;;;12.10;99.90;;;;;;5071308;28;20246;-70
2022/04/24 04:15:39;;;;;;;4.25;3.95;;;12.00;99.90;;;;;;5071949;28;20256;-70
2022/04/24 04:18:07;;;;;;;4.30;3.83;;;12.10;99.90;;;;;;5067408;28;20554;-69
2022/04/24 04:20:34;;;;;;;5.45;4.90;;;12.10;99.90;;;;;;5072170;28;20746;-70
2022/04/24 04:23:03;;;;;;;4.60;4.30;;;12.10;99.90;;;;;;5070902;28;20272;-70
2022/04/24 04:25:31;;;;;;;5.35;4.80;;;12.10;99.90;;;;;;5072067;28;20229;-70
2022/04/24 04:27:59;;;;;;;4.68;4.28;;;12.10;99.90;;;;;;5071724;28;20607;-71
2022/04/24 04:30:26;;;;;;;4.97;4.60;;;12.10;99.90;;;;;;5071029;28;20199;-71
2022/04/24 04:32:56;;;;;;;5.25;4.70;;;12.10;99.90;;;;;;5070530;28;20215;-70
2022/04/24 04:35:24;;;;;;;4.90;4.43;;;12.20;99.90;;;;;;5071815;28;20207;-70
2022/04/24 04:37:52;;;;;;;4.75;4.45;;;12.30;99.90;;;;;;5071506;28;20223;-71
2022/04/24 04:40:20;;;;;;;5.20;4.80;;;12.30;99.90;;;;;;5071675;28;20203;-70
2022/04/24 04:42:49;;;;;;;4.72;4.30;;;12.20;99.90;;;;;;5088559;23;20235;-63
2022/04/24 04:45:17;;;;;;;4.72;4.30;;;12.20;99.90;;;;;;5069831;28;20195;-63
2022/04/24 04:47:47;;;;;;;4.75;4.35;;;12.10;99.90;;;;;;5070664;28;20310;-63
2022/04/24 04:50:16;;;;;;;4.05;3.75;;;12.00;99.90;;;;;;5071325;28;20227;-63
2022/04/24 04:52:44;;;;;;;4.80;4.40;;;12.10;99.90;;;;;;5070166;28;20269;-64
2022/04/24 04:55:12;;;;;;;4.60;4.30;;;12.10;99.90;;;;;;5071183;28;20234;-64
2022/04/24 04:57:40;;;;;;;4.88;4.57;;;12.20;99.90;;;;;;5070840;28;20753;-63
2022/04/24 05:00:09;;;;;;;5.95;5.45;;;12.20;99.90;;;;;;5071104;28;20256;-63
2022/04/24 05:02:37;;;;;;;4.43;4.13;;;12.10;99.90;;;;;;5070487;28;20231;-63
2022/04/24 05:05:07;;;;;;;5.25;4.95;;;12.10;99.90;;;;;;5071037;28;20213;-63
2022/04/24 05:07:37;;;;;;;5.38;4.65;;;12.10;99.90;;;;;;5070994;28;20294;-63
2022/04/24 05:10:06;;;;;;;5.47;5.05;;;12.10;99.90;;;;;;5071168;28;20203;-63
2022/04/24 05:12:35;;;;;;;4.65;4.25;;;12.10;99.90;;;;;;5070064;28;20269;-62
2022/04/24 05:15:05;;;;;;;4.57;4.32;;;12.10;99.90;;;;;;5069605;28;20214;-61
2022/04/24 05:17:35;;;;;;;5.78;5.28;;;11.90;99.90;;;;;;5070366;28;20230;-61
2022/04/24 05:20:04;;;;;;;5.70;5.20;;;11.90;99.90;;;;;;5071177;28;20291;-62
2022/04/24 05:22:32;;;;;;;6.07;5.57;;;11.70;99.90;;;;;;5070352;28;20219;-62
2022/04/24 05:25:01;;;;;;;6.68;6.18;;;11.70;99.90;;;;;;5070926;28;20744;-62
2022/04/24 05:27:29;;;;;;;5.65;5.25;;;11.60;99.90;;;;;;5070806;28;20231;-61
2022/04/24 05:29:56;;;;;;;6.43;5.93;;;11.50;99.90;;;;;;5070625;28;20261;-61
2022/04/24 05:32:24;;;;;;;6.53;6.03;;;11.40;99.90;;;;;;5068451;28;20301;-62
2022/04/24 05:34:53;;;;;;;6.50;5.97;;;11.50;99.90;;;;;;5069191;28;20265;-61
2022/04/24 05:37:21;;;;;;;7.30;6.55;;;11.40;99.90;;;;;;5069536;28;20238;-61
2022/04/24 05:39:49;;;;;;;6.97;6.45;;;11.40;99.90;;;;;;5069267;28;20215;-62
2022/04/24 05:42:18;;;;;;;6.93;5.65;;;11.30;99.90;;;;;;5066972;28;20261;-61
2022/04/24 05:44:46;;;;;;;6.15;5.57;;;11.30;99.90;;;;;;5069235;28;20245;-62
2022/04/24 05:47:14;;;;;;;7.35;6.65;;;11.30;99.90;;;;;;5069128;28;20743;-61
2022/04/24 05:49:41;;;;;;;7.70;5.80;;;11.20;99.90;;;;;;5069260;28;20641;-61
2022/04/24 05:52:09;;;;;;;7.15;6.65;;;11.20;99.90;;;;;;5068744;28;20269;-62
2022/04/24 05:54:37;;;;;;;7.13;6.53;;;11.20;99.90;;;;;;5069469;28;20848;-61
2022/04/24 05:57:06;;;;;;;6.07;5.57;;;11.20;99.90;;;;;;5069254;28;20226;-62
2022/04/24 05:59:36;;;;;;;8.30;6.85;;;11.30;99.90;;;;;;5069457;28;20215;-62
2022/04/24 06:02:04;;;;;;;6.93;6.32;;;11.30;99.90;;;;;;5068748;28;20282;-62
2022/04/24 06:04:32;;;;;;;7.05;6.47;;;11.30;99.90;;;;;;5068660;28;20581;-62
2022/04/24 06:07:00;;;;;;;6.93;6.40;;;11.40;99.90;;;;;;5068753;28;20290;-62
2022/04/24 06:09:28;;;;;;;7.00;6.50;;;11.50;99.90;;;;;;5069184;28;21167;-62
2022/04/24 06:11:58;;;;;;;7.22;6.63;;;11.50;99.90;;;;;;5068904;28;20581;-61
2022/04/24 06:14:26;;;;;;;7.55;6.95;;;11.50;99.90;;;;;;5069077;28;20651;-62
2022/04/24 06:16:55;;;;;;;6.65;6.20;;;11.50;99.90;;;;;;5068885;28;20230;-62
2022/04/24 06:19:23;;;;;;;7.22;6.40;;;11.50;99.90;;;;;;5069220;28;20215;-62
2022/04/24 06:21:51;;;;;;;7.80;7.10;;;11.50;99.90;;;;;;5068484;28;20234;-62
2022/04/24 06:24:19;;;;;;;6.93;6.40;;;11.50;99.90;;;;;;5068173;28;20667;-62
2022/04/24 06:26:47;;;;;;;7.50;6.80;;;11.50;99.90;;;;;;5069182;28;20215;-61
2022/04/24 06:29:15;;;;;;;6.65;6.05;;;11.50;99.90;;;;;;5069051;28;20219;-62
2022/04/24 06:31:43;;;;;;;6.90;6.40;;;11.60;99.90;;;;;;5069177;28;20280;-61
2022/04/24 06:34:12;;;;;;;8.18;7.47;;;11.60;99.90;;;;;;5067982;28;20223;-61
2022/04/24 06:36:40;;;;;;;8.10;7.40;;;11.50;99.90;;;;;;5066108;28;20278;-62
2022/04/24 06:39:07;;;;;;;7.88;7.18;;;11.60;99.90;;;;;;5068865;28;20219;-61
2022/04/24 06:41:35;;;;;;;7.53;6.85;;;11.60;99.90;;;;;;5067891;28;20241;-61
2022/04/24 06:44:03;;;;;;;8.30;7.50;;;11.60;99.90;;;;;;5065696;28;20321;-61
2022/04/24 06:46:31;;;;;;;8.98;8.18;;;11.60;99.90;;;;;;5065580;28;20257;-61
2022/04/24 06:48:59;;;;;;;8.23;7.43;;;11.70;99.90;;;;;;5068074;28;20285;-61
2022/04/24 06:51:28;;;;;;;8.32;7.63;;;11.60;99.90;;;;;;5066004;28;20211;-63
2022/04/24 06:53:56;;;;;;;8.00;7.35;;;11.60;99.90;;;;;;5072310;28;20231;-62
2022/04/24 06:56:24;;;;;;;8.30;7.60;;;11.60;99.90;;;;;;5071651;28;20996;-60
2022/04/24 06:58:52;;;;;;;8.75;8.07;;;11.60;99.90;;;;;;5071706;28;20302;-61
2022/04/24 07:01:22;;;;;;;9.27;8.57;;;11.60;99.90;;;;;;5072172;28;20206;-61
2022/04/24 07:03:50;;;;;;;8.00;7.30;;;11.60;99.90;;;;;;5071269;28;20212;-61
2022/04/24 07:06:23;;;;;;;9.57;8.77;;;11.60;99.90;;;;;;5069936;28;20203;-61
2022/04/24 07:08:52;;;;;;;8.55;7.75;;;11.60;99.90;;;;;;5070831;28;20209;-61
2022/04/24 07:11:22;;;;;;;9.80;8.90;;;11.70;99.90;;;;;;5071215;28;20200;-62
2022/04/24 07:13:50;;;;;;;9.98;9.00;;;11.80;99.90;;;;;;5070093;28;20218;-62
2022/04/24 07:16:17;;;;;;;8.93;8.20;;;11.80;99.90;;;;;;5071141;28;20219;-62
2022/04/24 07:18:45;;;;;;;8.32;7.63;;;12.00;99.90;;;;;;5071110;28;20212;-62
2022/04/24 07:21:13;;;;;;;9.05;8.25;;;12.00;99.90;;;;;;5071668;28;20664;-62
2022/04/24 07:23:41;;;;;;;9.15;8.35;;;12.10;99.90;;;;;;5070809;28;20253;-62
2022/04/24 07:26:10;;;;;;;9.52;8.82;;;12.30;99.90;;;;;;5071808;28;20988;-62
2022/04/24 07:28:38;;;;;;;13.52;12.52;;;12.40;99.90;;;;;;5067913;28;20219;-61
2022/04/24 07:31:07;;;;;;;9.75;8.95;;;12.60;99.90;;;;;;5071598;28;20794;-62
2022/04/24 07:33:37;;;;;;;9.23;8.43;;;12.60;99.90;;;;;;5070806;28;20221;-61
2022/04/24 07:36:06;;;;;;;10.13;9.20;;;12.70;99.90;;;;;;5071544;28;20214;-61
2022/04/24 07:38:34;;;;;;;8.23;7.43;;;12.70;99.90;;;;;;5071002;28;20191;-61
2022/04/24 07:41:03;;;;;;;9.05;8.35;;;12.80;99.90;;;;;;5071428;28;20222;-61
2022/04/24 07:43:33;;;;;;;9.32;8.52;;;12.80;99.90;;;;;;5070471;28;20358;-61
2022/04/24 07:46:01;;;;;;;9.30;8.07;;;12.90;99.90;;;;;;5071736;28;20290;-65
2022/04/24 07:48:29;;;;;;;10.45;8.27;;;13.00;99.90;;;;;;5067965;28;20226;-63
2022/04/24 07:50:57;;;;;;;10.68;9.68;;;13.10;99.90;;;;;;5071354;28;20195;-62
2022/04/24 07:53:25;;;;;;;8.68;8.07;;;13.30;99.90;;;;;;5069929;28;20269;-63
2022/04/24 07:55:53;;;;;;;10.60;9.80;;;13.30;99.90;;;;;;5071282;28;20290;-63
2022/04/24 07:58:21;;;;;;;9.38;8.57;;;13.40;99.90;;;;;;5072216;28;20199;-62
2022/04/24 08:00:50;;;;;;;8.65;7.95;;;13.50;99.90;;;;;;5072401;28;20219;-64
2022/04/24 08:03:19;;;;;;;8.52;7.93;;;13.50;99.90;;;;;;5070793;28;20269;-62
2022/04/24 08:05:50;;;;;;;10.25;9.45;;;13.60;99.90;;;;;;5071790;28;20740;-63
2022/04/24 08:08:19;;;;;;;9.18;8.30;;;13.70;99.90;;;;;;5071622;28;20203;-63
2022/04/24 08:10:49;;;;;;;9.55;8.65;;;13.80;99.90;;;;;;5072399;28;20249;-64
2022/04/24 08:13:17;;;;;;;9.18;8.38;;;13.90;99.90;;;;;;5071485;28;20222;-63
2022/04/24 08:15:45;;;;;;;9.05;8.35;;;13.90;99.90;;;;;;5071900;28;20227;-62
2022/04/24 08:18:15;;;;;;;9.40;8.70;;;13.90;99.90;;;;;;5071662;28;20614;-62
2022/04/24 08:20:45;;;;;;;9.63;8.93;;;14.00;99.90;;;;;;5071776;28;20939;-62
2022/04/24 08:23:15;;;;;;;7.90;7.40;;;14.00;99.90;;;;;;5069520;28;20242;-62
2022/04/24 08:25:43;;;;;;;10.00;9.20;;;14.20;99.90;;;;;;5071967;28;20230;-61
2022/04/24 08:28:12;;;;;;;9.13;8.43;;;14.30;99.90;;;;;;5071367;28;20565;-64
2022/04/24 08:30:42;;;;;;;10.27;9.38;;;14.50;99.90;;;;;;5070155;28;20205;-62
2022/04/24 08:33:11;;;;;;;8.93;8.23;;;14.40;99.90;;;;;;5067460;28;20219;-62
2022/04/24 08:35:40;;;;;;;9.32;8.45;;;14.30;99.90;;;;;;5069640;28;20305;-62
2022/04/24 08:38:08;;;;;;;9.20;8.50;;;14.20;99.90;;;;;;5069302;28;20731;-63
2022/04/24 08:40:36;;;;;;;8.40;7.68;;;14.20;99.90;;;;;;5070454;28;20241;-62
2022/04/24 08:43:04;;;;;;;9.50;8.80;;;14.20;99.90;;;;;;5069332;28;20235;-63
2022/04/24 08:45:33;;;;;;;9.45;8.75;;;14.20;99.90;;;;;;5070281;28;20227;-63
2022/04/24 08:48:04;;;;;;;10.40;9.38;;;14.30;99.90;;;;;;5069679;28;20286;-62
2022/04/24 08:50:33;;;;;;;9.63;8.63;;;14.40;99.90;;;;;;5071212;28;20234;-63
2022/04/24 08:53:02;;;;;;;10.02;9.23;;;14.60;99.90;;;;;;5070207;28;20647;-63
2022/04/24 08:55:32;;;;;;;10.85;9.95;;;14.70;99.90;;;;;;5065128;28;20222;-63
2022/04/24 08:58:01;;;;;;;9.88;8.88;;;14.80;99.90;;;;;;5070169;28;20229;-64
2022/04/24 09:00:29;;;;;;;9.60;8.80;;;14.90;99.90;;;;;;5070798;28;20255;-64
2022/04/24 09:02:58;;;;;;;11.20;10.30;;;14.90;99.90;;;;;;5069988;28;20214;-63
2022/04/24 09:05:30;;;;;;;9.60;8.90;;;15.00;99.90;;;;;;5071251;28;20211;-64
2022/04/24 09:08:08;;;;;;;10.35;9.45;;;15.00;99.90;;;;;;5070445;28;20671;-63
2022/04/24 09:10:57;;;;;;;10.98;9.88;;;15.00;99.90;;;;;;5071264;28;20206;-64
2022/04/24 09:13:30;;;;;;;9.73;9.02;;;14.90;99.90;;;;;;5070367;28;20259;-64
2022/04/24 09:15:59;;;;;;;10.73;9.95;;;15.00;99.90;;;;;;5070946;28;20203;-64
2022/04/24 09:18:40;;;;;;;10.05;9.25;;;15.10;99.90;;;;;;5064099;28;20223;-64
2022/04/24 09:21:11;;;;;;;9.70;8.82;;;15.10;99.90;;;;;;5071077;28;20227;-63
2022/04/24 09:23:42;;;;;;;11.65;10.48;;;15.20;99.90;;;;;;5069769;28;20246;-63
2022/04/24 09:26:14;;;;;;;10.25;9.35;;;15.20;99.90;;;;;;5070724;28;20213;-64
2022/04/24 09:28:42;;;;;;;24.40;21.90;;;15.10;99.90;;;;;;5069998;28;20301;-64
2022/04/24 09:31:11;;;;;;;17.52;15.82;;;15.10;99.90;;;;;;5070353;28;20789;-64
2022/04/24 09:33:40;;;;;;;10.48;9.68;;;15.10;99.90;;;;;;5069844;28;20227;-64
2022/04/24 09:36:09;;;;;;;12.35;11.13;;;15.00;99.90;;;;;;5070817;28;20726;-64
2022/04/24 09:38:43;;;;;;;10.68;9.77;;;15.00;99.90;;;;;;5070586;28;20241;-63
2022/04/24 09:41:20;;;;;;;10.98;10.07;;;15.10;99.90;;;;;;5070631;28;20219;-64
2022/04/24 09:43:48;;;;;;;11.23;10.32;;;15.20;99.90;;;;;;5069063;28;20243;-63
2022/04/24 09:46:26;;;;;;;10.75;9.75;;;15.20;99.90;;;;;;5064117;28;20269;-64
2022/04/24 09:48:57;;;;;;;11.05;10.15;;;15.10;99.90;;;;;;5070729;28;20202;-63
2022/04/24 09:51:25;;;;;;;10.95;10.20;;;15.10;99.90;;;;;;5070076;28;20385;-64
2022/04/24 09:53:58;;;;;;;10.50;9.70;;;15.00;99.90;;;;;;5069162;28;20270;-64
2022/04/24 09:56:27;;;;;;;10.82;9.93;;;15.00;99.90;;;;;;5070444;28;20227;-63
2022/04/24 09:58:57;;;;;;;10.27;9.43;;;15.30;99.90;;;;;;5066958;28;20215;-64
2022/04/24 10:01:26;;;;;;;11.18;10.13;;;15.50;99.90;;;;;;5070583;28;20254;-63
2022/04/24 10:03:55;;;;;;;11.80;10.90;;;15.70;99.90;;;;;;5069201;28;20223;-64
2022/04/24 10:06:24;;;;;;;11.95;10.65;;;16.00;99.90;;;;;;5070394;28;20202;-63
2022/04/24 10:08:53;;;;;;;10.30;9.50;;;16.30;99.90;;;;;;5070174;28;20218;-64
2022/04/24 10:11:22;;;;;;;11.18;10.27;;;16.70;99.90;;;;;;5070324;28;20199;-63
2022/04/24 10:13:54;;;;;;;10.48;9.57;;;17.00;99.90;;;;;;5068161;28;20294;-63
2022/04/24 10:16:43;;;;;;;11.68;10.77;;;17.10;99.90;;;;;;5069723;28;20208;-64
2022/04/24 10:19:23;;;;;;;11.23;10.43;;;16.80;99.90;;;;;;5064715;28;20259;-63
2022/04/24 10:22:04;;;;;;;11.60;10.55;;;16.70;99.90;;;;;;5070042;28;20250;-64
2022/04/24 10:24:40;;;;;;;11.43;10.52;;;16.60;99.90;;;;;;5070002;28;20302;-64
2022/04/24 10:27:11;;;;;;;11.40;10.50;;;16.50;99.90;;;;;;5071251;28;20287;-62
2022/04/24 10:29:50;;;;;;;11.13;10.32;;;16.50;99.90;;;;;;5073590;28;20210;-64
2022/04/24 10:32:26;;;;;;;11.02;10.23;;;16.30;99.90;;;;;;5073493;28;20493;-64
2022/04/24 10:34:54;;;;;;;11.50;10.50;;;16.10;99.90;;;;;;5074156;28;20252;-64
2022/04/24 10:37:27;;;;;;;11.85;10.95;;;16.00;99.90;;;;;;5073848;28;20261;-62
2022/04/24 10:39:56;;;;;;;12.18;11.10;;;16.00;99.90;;;;;;5073777;28;20671;-64
2022/04/24 10:42:31;;;;;;;10.95;10.02;;;15.90;99.90;;;;;;5073667;28;20871;-63
2022/04/24 10:45:09;;;;;;;10.23;9.43;;;15.80;99.90;;;;;;5073984;28;20214;-64
2022/04/24 10:47:42;;;;;;;10.75;9.95;;;15.70;99.90;;;;;;5073899;28;20241;-64
2022/04/24 10:50:11;;;;;;;10.98;10.07;;;15.70;99.90;;;;;;5073792;28;20222;-63
2022/04/24 10:52:39;;;;;;;10.07;9.27;;;15.60;99.90;;;;;;5072205;28;20243;-63
2022/04/24 10:55:08;;;;;;;10.95;9.85;;;15.50;99.90;;;;;;5073906;28;20269;-64
2022/04/24 10:57:44;;;;;;;10.10;9.30;;;15.50;99.90;;;;;;5067056;28;20753;-64
2022/04/24 11:00:22;;;;;;;10.77;9.98;;;15.40;99.90;;;;;;5069052;28;20542;-63
2022/04/24 11:02:51;;;;;;;11.10;10.18;;;15.20;99.90;;;;;;5072763;28;20227;-63
2022/04/24 11:05:21;;;;;;;10.88;9.93;;;15.20;99.90;;;;;;5073424;28;20203;-63
2022/04/24 11:08:02;;;;;;;9.75;9.00;;;15.20;99.90;;;;;;5073649;28;20238;-63
2022/04/24 11:10:30;;;;;;;10.40;9.50;;;15.20;99.90;;;;;;5073391;28;20253;-63
2022/04/24 11:12:59;;;;;;;9.43;8.63;;;15.20;99.90;;;;;;5072793;28;20663;-63
2022/04/24 11:15:29;;;;;;;9.70;9.00;;;15.20;99.90;;;;;;5073231;28;20241;-64
2022/04/24 11:17:57;;;;;;;10.50;9.55;;;15.10;99.90;;;;;;5073298;28;20226;-62
2022/04/24 11:20:29;;;;;;;9.50;8.80;;;15.10;99.90;;;;;;5073006;28;20301;-63
2022/04/24 11:22:57;;;;;;;8.55;7.95;;;15.00;99.90;;;;;;5072031;28;20312;-64
2022/04/24 11:25:27;;;;;;;8.25;7.65;;;15.00;99.90;;;;;;5073041;28;20286;-62
2022/04/24 11:27:57;;;;;;;9.95;9.10;;;14.90;99.90;;;;;;5072752;28;20195;-63
2022/04/24 11:30:31;;;;;;;9.25;8.48;;;14.80;99.90;;;;;;5072914;28;20272;-63
2022/04/24 11:33:04;;;;;;;9.02;8.32;;;14.90;99.90;;;;;;5066207;28;20221;-62
2022/04/24 11:35:35;;;;;;;8.77;8.10;;;14.80;99.90;;;;;;5073043;28;20679;-63
2022/04/24 11:38:03;;;;;;;9.10;8.40;;;14.90;99.90;;;;;;5072473;28;20615;-64
2022/04/24 11:40:33;;;;;;;9.10;8.27;;;14.90;99.90;;;;;;5072552;28;20199;-63
2022/04/24 11:43:16;;;;;;;9.00;8.10;;;14.90;99.90;;;;;;5071235;28;20238;-64
2022/04/24 11:51:31;;;;;;;9.40;8.65;;;15.00;99.90;;;;;;5072339;28;20200;-63
2022/04/24 11:54:08;;;;;;;9.32;8.63;;;15.10;99.90;;;;;;5070766;28;20230;-64
2022/04/24 11:56:37;;;;;;;8.88;8.18;;;15.20;99.90;;;;;;5072516;28;20207;-60
2022/04/24 11:59:13;;;;;;;9.30;8.60;;;15.30;99.90;;;;;;5071948;28;20206;-60
2022/04/24 12:01:44;;;;;;;9.30;8.50;;;15.40;99.90;;;;;;5065868;28;20305;-61
2022/04/24 12:04:19;;;;;;;9.20;8.48;;;15.50;99.90;;;;;;5065645;28;20269;-64
2022/04/24 12:06:48;;;;;;;10.18;9.18;;;15.70;99.90;;;;;;5072045;28;20687;-62
2022/04/24 12:09:23;;;;;;;10.73;9.80;;;15.70;99.90;;;;;;5072054;28;20622;-62
2022/04/24 12:12:06;;;;;;;9.07;8.38;;;15.90;99.90;;;;;;5071627;28;20214;-62
2022/04/24 12:14:35;;;;;;;10.48;9.52;;;16.10;99.90;;;;;;5071258;28;20210;-62
2022/04/24 12:17:06;;;;;;;11.20;10.30;;;16.10;99.80;;;;;;5072409;28;20195;-62
2022/04/24 12:19:34;;;;;;;9.40;8.57;;;16.20;99.30;;;;;;5072123;28;20676;-62
2022/04/24 12:22:07;;;;;;;9.80;9.00;;;16.40;99.90;;;;;;5070964;28;20237;-62
2022/04/24 12:24:42;;;;;;;10.63;9.73;;;16.50;99.60;;;;;;5071685;28;20688;-62
2022/04/24 12:27:14;;;;;;;9.60;8.90;;;16.70;99.00;;;;;;5065277;28;20210;-63
2022/04/24 12:29:44;;;;;;;9.65;8.95;;;16.90;99.40;;;;;;5071462;28;20278;-62
2022/04/24 12:32:14;;;;;;;9.82;8.77;;;16.90;98.70;;;;;;5071217;28;20663;-62
2022/04/24 12:34:43;;;;;;;10.07;9.07;;;17.00;99.30;;;;;;5071367;28;20571;-62
2022/04/24 12:37:12;;;;;;;10.70;9.80;;;16.80;99.70;;;;;;5071443;28;20253;-63
2022/04/24 12:39:40;;;;;;;10.00;9.20;;;16.80;99.20;;;;;;5071586;28;20264;-63
2022/04/24 12:42:13;;;;;;;9.95;9.05;;;16.90;99.50;;;;;;5070619;28;20219;-63
2022/04/24 12:44:41;;;;;;;11.05;10.13;;;17.00;99.10;;;;;;5070799;28;20282;-62
2022/04/24 12:47:09;;;;;;;9.95;9.15;;;17.20;99.70;;;;;;5071038;28;20713;-62
2022/04/24 12:49:39;;;;;;;10.50;9.60;;;17.30;99.40;;;;;;5070595;28;20672;-63
2022/04/24 12:52:08;;;;;;;10.65;9.75;;;17.30;98.80;;;;;;5070512;28;20268;-63
2022/04/24 12:54:36;;;;;;;10.85;9.85;;;17.20;99.00;;;;;;5069799;28;20203;-62
2022/04/24 12:57:05;;;;;;;10.43;9.65;;;17.10;99.40;;;;;;5070171;28;20564;-63
2022/04/24 12:59:34;;;;;;;10.45;9.65;;;17.00;98.80;;;;;;5070879;28;20246;-63